Time;durP1;ratioP1;P1;durP2;ratioP2;P2;SDS_P1;SDS_P2;PMS_P1;PMS_P2;Temp;Humidity;BMP_temperature;BMP_pressure;BME280_temperature;BME280_humidity;BME280_pressure;Samples;Min_cycle;Max_cycle;Signal;HPM_P1;HPM_P2
2021/11/28 00:00:44;;;;;;;20.10;8.23;;;5.00;44.70;;;;;;5021119;28;20393;-76
2021/11/28 00:03:11;;;;;;;17.65;8.57;;;5.00;44.10;;;;;;5020213;28;20483;-75
2021/11/28 00:05:37;;;;;;;16.92;8.55;;;5.00;44.00;;;;;;5021078;28;20440;-77
2021/11/28 00:08:12;;;;;;;19.08;8.85;;;4.90;44.40;;;;;;5021800;28;20385;-75
2021/11/28 00:11:44;;;;;;;17.85;9.30;;;4.80;44.90;;;;;;5018468;28;20485;-76
2021/11/28 00:13:45;;;;;;;17.38;8.70;;;4.80;45.70;;;;;;5011558;28;20397;-76
2021/11/28 00:16:11;;;;;;;15.75;8.20;;;4.80;45.50;;;;;;5022968;28;20416;-77
2021/11/28 00:18:37;;;;;;;18.13;8.43;;;4.80;45.70;;;;;;5021587;28;20492;-77
2021/11/28 00:21:03;;;;;;;22.00;8.85;;;4.80;45.90;;;;;;5018280;28;20474;-78
2021/11/28 00:23:29;;;;;;;18.55;8.80;;;4.70;46.10;;;;;;5017826;28;20408;-76
2021/11/28 00:25:55;;;;;;;21.90;8.77;;;4.70;46.40;;;;;;5019188;28;20401;-75
2021/11/28 00:28:21;;;;;;;18.77;8.98;;;4.80;46.60;;;;;;5017192;28;20399;-75
2021/11/28 00:30:47;;;;;;;17.35;8.52;;;4.80;46.00;;;;;;5020277;28;20408;-76
2021/11/28 00:33:13;;;;;;;19.70;9.25;;;4.80;45.70;;;;;;5016973;28;20389;-76
2021/11/28 00:35:38;;;;;;;17.25;9.10;;;4.70;46.00;;;;;;5016404;28;20420;-76
2021/11/28 00:38:04;;;;;;;17.80;8.30;;;4.70;46.70;;;;;;5016868;28;20778;-75
2021/11/28 00:40:30;;;;;;;19.60;9.13;;;4.70;46.80;;;;;;5018431;28;20472;-77
2021/11/28 00:42:56;;;;;;;20.97;8.70;;;4.60;46.70;;;;;;5018545;28;20902;-77
2021/11/28 00:45:22;;;;;;;19.42;9.07;;;4.70;46.80;;;;;;5018798;28;20483;-75
2021/11/28 00:47:48;;;;;;;13.05;8.00;;;4.70;47.50;;;;;;5023164;28;20416;-77
2021/11/28 00:52:42;;;;;;;16.97;8.40;;;4.60;47.00;;;;;;5017136;28;20392;-77
2021/11/28 00:55:09;;;;;;;18.20;8.82;;;4.60;47.10;;;;;;5016432;28;20706;-76
2021/11/28 00:57:36;;;;;;;16.85;8.38;;;4.60;46.80;;;;;;5014684;28;20416;-75
2021/11/28 01:00:05;;;;;;;15.80;8.35;;;4.60;46.80;;;;;;5016605;28;20477;-75
2021/11/28 01:02:31;;;;;;;18.60;8.40;;;4.60;46.70;;;;;;5016874;28;20403;-75
2021/11/28 01:04:57;;;;;;;12.50;8.27;;;4.60;46.90;;;;;;5016896;28;20395;-76
2021/11/28 01:07:23;;;;;;;17.35;8.48;;;4.60;47.10;;;;;;5020377;28;20389;-77
2021/11/28 01:09:48;;;;;;;16.70;8.50;;;4.50;47.20;;;;;;5022235;28;20404;-77
2021/11/28 01:12:14;;;;;;;17.23;8.20;;;4.60;47.10;;;;;;5022770;28;20447;-77
2021/11/28 01:14:40;;;;;;;18.63;9.45;;;4.60;46.90;;;;;;5027487;28;20462;-76
2021/11/28 01:17:06;;;;;;;17.95;8.75;;;4.60;47.80;;;;;;5030098;28;20389;-75
2021/11/28 01:19:33;;;;;;;18.60;9.60;;;4.60;47.50;;;;;;5029718;28;20405;-76
2021/11/28 01:22:02;;;;;;;20.92;9.10;;;4.50;47.60;;;;;;5029656;28;20403;-75
2021/11/28 01:24:28;;;;;;;15.07;7.80;;;4.60;47.60;;;;;;5029041;28;20389;-76
2021/11/28 01:26:55;;;;;;;23.38;8.45;;;4.50;47.50;;;;;;5015827;28;20390;-77
2021/11/28 01:29:22;;;;;;;17.02;8.27;;;4.60;47.10;;;;;;5002970;28;20398;-77
2021/11/28 01:31:48;;;;;;;17.67;9.05;;;4.60;47.10;;;;;;5005618;28;20408;-75
2021/11/28 01:34:14;;;;;;;15.50;8.52;;;4.50;47.40;;;;;;5024208;28;20397;-75
2021/11/28 01:36:39;;;;;;;17.47;8.50;;;4.50;47.80;;;;;;5024189;28;20460;-77
2021/11/28 01:39:09;;;;;;;20.10;8.70;;;4.60;47.80;;;;;;5022187;28;20409;-77
2021/11/28 01:41:34;;;;;;;20.92;8.73;;;4.60;47.70;;;;;;5026022;28;20404;-77
2021/11/28 01:44:00;;;;;;;14.20;8.20;;;4.70;47.20;;;;;;5025399;28;20404;-75
2021/11/28 01:46:27;;;;;;;17.85;9.90;;;4.60;47.30;;;;;;5023525;28;20471;-77
2021/11/28 01:48:54;;;;;;;17.05;8.73;;;4.60;47.40;;;;;;5024415;23;20446;-77
2021/11/28 01:51:20;;;;;;;16.23;9.10;;;4.50;48.20;;;;;;4995085;28;20417;-77
2021/11/28 01:53:47;;;;;;;14.07;7.70;;;4.50;48.20;;;;;;4988611;28;20388;-75
2021/11/28 01:56:13;;;;;;;16.92;8.35;;;4.50;47.60;;;;;;4976392;28;20443;-75
2021/11/28 01:58:39;;;;;;;16.90;7.75;;;4.60;48.40;;;;;;4984907;28;20413;-76
2021/11/28 02:01:10;;;;;;;14.93;8.13;;;4.50;47.60;;;;;;5014976;28;20392;-75
2021/11/28 02:03:39;;;;;;;14.00;7.70;;;4.50;47.90;;;;;;5014885;28;20385;-75
2021/11/28 02:06:06;;;;;;;12.38;7.50;;;4.50;48.00;;;;;;5014281;28;20393;-77
2021/11/28 02:08:31;;;;;;;14.30;8.50;;;4.50;47.90;;;;;;5014065;28;20407;-76
2021/11/28 02:10:57;;;;;;;16.17;8.93;;;4.50;48.20;;;;;;5015925;28;20393;-75
2021/11/28 02:13:24;;;;;;;13.65;7.50;;;4.50;48.90;;;;;;5014761;28;20478;-76
2021/11/28 02:15:50;;;;;;;17.42;8.75;;;4.50;48.40;;;;;;5015094;28;20396;-76
2021/11/28 02:18:16;;;;;;;13.07;7.43;;;4.50;48.50;;;;;;5014374;28;20964;-76
2021/11/28 02:20:47;;;;;;;14.05;7.60;;;4.50;48.70;;;;;;5015314;28;20393;-75
2021/11/28 02:23:13;;;;;;;11.50;7.00;;;4.50;48.50;;;;;;5013399;28;20399;-75
2021/11/28 02:25:40;;;;;;;14.88;8.10;;;4.50;48.80;;;;;;5014804;28;20427;-75
2021/11/28 02:28:06;;;;;;;17.35;9.43;;;4.40;49.00;;;;;;5014996;28;20771;-77
2021/11/28 02:30:31;;;;;;;17.27;8.77;;;4.40;49.70;;;;;;5014398;28;20408;-77
2021/11/28 02:32:58;;;;;;;11.25;7.80;;;4.40;50.10;;;;;;5014808;28;20389;-76
2021/11/28 02:35:26;;;;;;;17.70;8.05;;;4.30;50.30;;;;;;5014815;28;20519;-74
2021/11/28 02:37:52;;;;;;;15.20;7.40;;;4.30;50.60;;;;;;5014349;28;20799;-75
2021/11/28 02:40:20;;;;;;;16.77;8.40;;;4.30;50.70;;;;;;5014777;28;20389;-77
2021/11/28 02:42:49;;;;;;;17.05;7.65;;;4.20;50.20;;;;;;5017981;28;20479;-75
2021/11/28 02:45:16;;;;;;;17.17;8.23;;;4.20;50.70;;;;;;5015923;28;20467;-76
2021/11/28 02:47:42;;;;;;;12.15;7.20;;;4.20;51.30;;;;;;5020992;28;20476;-75
2021/11/28 02:50:09;;;;;;;18.30;8.70;;;4.10;51.80;;;;;;5016958;28;20432;-72
2021/11/28 02:52:35;;;;;;;18.23;9.10;;;4.00;52.30;;;;;;5014146;28;20401;-73
2021/11/28 02:55:02;;;;;;;17.47;8.33;;;3.90;53.70;;;;;;5014666;28;20892;-75
2021/11/28 02:57:28;;;;;;;20.40;10.00;;;3.80;54.40;;;;;;5014758;28;20458;-73
2021/11/28 02:59:53;;;;;;;22.13;8.13;;;3.70;55.20;;;;;;5014886;28;20396;-75
2021/11/28 03:02:19;;;;;;;14.07;7.63;;;3.70;56.60;;;;;;5018847;28;20385;-74
2021/11/28 03:04:45;;;;;;;16.90;8.88;;;3.60;57.10;;;;;;5018443;28;20400;-72
2021/11/28 03:07:15;;;;;;;20.35;9.15;;;3.50;57.80;;;;;;5019320;28;20395;-73
2021/11/28 03:09:41;;;;;;;15.32;8.60;;;3.40;58.60;;;;;;5018784;28;20419;-73
2021/11/28 03:12:07;;;;;;;15.23;8.03;;;3.40;59.60;;;;;;5019213;28;20384;-73
2021/11/28 03:14:32;;;;;;;15.45;8.30;;;3.20;60.70;;;;;;5014316;28;20393;-73
2021/11/28 03:16:59;;;;;;;14.18;7.82;;;3.20;61.80;;;;;;5006406;28;20400;-73
2021/11/28 03:19:24;;;;;;;20.00;8.57;;;3.10;63.20;;;;;;5026355;28;20464;-73
2021/11/28 03:21:50;;;;;;;16.77;7.70;;;3.00;64.00;;;;;;5027590;28;20404;-73
2021/11/28 03:24:16;;;;;;;16.97;7.57;;;2.90;64.70;;;;;;5017616;28;20392;-73
2021/11/28 03:26:43;;;;;;;14.68;8.20;;;2.80;66.80;;;;;;5017998;28;20400;-73
2021/11/28 03:29:13;;;;;;;14.18;7.55;;;2.90;67.00;;;;;;5018145;28;20395;-74
2021/11/28 03:31:43;;;;;;;19.00;8.18;;;2.90;67.10;;;;;;5017699;28;20483;-73
2021/11/28 03:34:10;;;;;;;15.50;7.50;;;2.90;67.60;;;;;;5016916;28;20483;-73
2021/11/28 03:36:40;;;;;;;17.30;8.00;;;2.80;68.20;;;;;;5017390;28;20385;-73
2021/11/28 03:39:11;;;;;;;16.15;7.78;;;2.70;69.50;;;;;;5017376;28;20419;-73
2021/11/28 03:41:37;;;;;;;13.05;7.65;;;2.60;70.50;;;;;;5016196;28;20385;-73
2021/11/28 03:44:04;;;;;;;15.88;8.45;;;2.60;71.80;;;;;;5016036;28;20388;-72
2021/11/28 03:46:30;;;;;;;13.40;7.95;;;2.60;72.10;;;;;;5012731;28;20388;-73
2021/11/28 03:48:58;;;;;;;13.15;7.70;;;2.50;72.50;;;;;;5008617;28;20793;-73
2021/11/28 03:51:24;;;;;;;14.02;8.05;;;2.50;73.50;;;;;;5013965;28;20388;-72
2021/11/28 03:53:49;;;;;;;21.05;10.05;;;2.60;74.30;;;;;;5013969;28;20392;-73
2021/11/28 03:56:16;;;;;;;17.07;8.90;;;2.60;73.00;;;;;;5013925;28;20450;-73
2021/11/28 03:58:41;;;;;;;15.57;8.40;;;2.60;73.30;;;;;;5013254;28;20436;-73
2021/11/28 04:01:09;;;;;;;16.05;9.00;;;2.60;74.00;;;;;;5008940;28;20949;-73
2021/11/28 04:03:36;;;;;;;15.70;8.18;;;2.70;73.80;;;;;;4999882;28;20397;-71
2021/11/28 04:06:02;;;;;;;16.20;8.23;;;2.80;73.00;;;;;;5013324;28;20446;-73
2021/11/28 04:08:28;;;;;;;13.77;7.63;;;2.80;72.70;;;;;;5011042;28;20491;-73
2021/11/28 04:10:53;;;;;;;16.10;8.60;;;2.80;72.10;;;;;;5011363;28;20384;-73
2021/11/28 04:13:19;;;;;;;13.87;8.37;;;2.90;72.10;;;;;;5010686;28;20442;-73
2021/11/28 04:15:44;;;;;;;21.15;9.48;;;2.90;72.00;;;;;;5004253;28;20768;-73
2021/11/28 04:18:10;;;;;;;13.73;8.15;;;3.10;70.90;;;;;;5001425;28;20897;-73
2021/11/28 04:20:36;;;;;;;12.55;7.68;;;3.20;69.80;;;;;;5013171;28;20412;-76
2021/11/28 04:23:03;;;;;;;12.95;7.47;;;3.30;68.70;;;;;;5012673;28;20889;-76
2021/11/28 04:25:29;;;;;;;16.23;8.32;;;3.30;67.90;;;;;;5012443;28;20751;-76
2021/11/28 04:27:56;;;;;;;12.65;7.65;;;3.40;66.30;;;;;;5012628;28;20389;-76
2021/11/28 04:30:21;;;;;;;13.60;8.30;;;3.40;64.90;;;;;;5013114;28;20912;-75
2021/11/28 04:32:47;;;;;;;16.85;7.65;;;3.40;64.10;;;;;;5013037;28;20467;-76
2021/11/28 04:35:13;;;;;;;16.20;7.93;;;3.60;63.30;;;;;;5011936;28;20480;-76
2021/11/28 04:37:39;;;;;;;14.68;7.70;;;3.70;61.30;;;;;;5013170;28;20499;-76
2021/11/28 04:40:06;;;;;;;13.98;7.43;;;3.70;60.80;;;;;;5012920;28;20451;-75
2021/11/28 04:42:31;;;;;;;17.52;8.40;;;3.60;59.60;;;;;;5012552;28;20800;-76
2021/11/28 04:44:57;;;;;;;10.52;7.18;;;3.60;59.20;;;;;;5011822;28;20397;-76
2021/11/28 04:47:23;;;;;;;11.30;6.70;;;3.60;59.00;;;;;;5012211;28;20809;-75
2021/11/28 04:49:49;;;;;;;10.50;6.82;;;3.70;58.10;;;;;;5012279;28;20789;-76
2021/11/28 04:52:15;;;;;;;18.73;7.90;;;3.60;58.40;;;;;;5012510;28;20431;-75
2021/11/28 04:54:41;;;;;;;11.07;7.00;;;3.60;59.20;;;;;;5025569;28;20389;-74
2021/11/28 04:57:06;;;;;;;14.27;7.78;;;3.50;60.00;;;;;;5024639;28;20786;-74
2021/11/28 04:59:32;;;;;;;14.48;7.25;;;3.60;60.80;;;;;;5022102;28;20404;-75
2021/11/28 05:01:58;;;;;;;16.13;8.07;;;3.60;61.10;;;;;;5023273;28;20393;-75
2021/11/28 05:04:23;;;;;;;17.02;7.60;;;3.60;60.50;;;;;;5020715;28;20423;-75
2021/11/28 05:06:49;;;;;;;21.65;8.02;;;3.70;60.40;;;;;;5021120;28;20396;-76
2021/11/28 05:09:15;;;;;;;13.30;7.55;;;3.70;59.60;;;;;;5015657;28;20381;-74
2021/11/28 05:11:41;;;;;;;10.83;7.23;;;3.80;59.40;;;;;;5012616;28;20426;-75
2021/11/28 05:14:07;;;;;;;13.90;7.00;;;3.80;59.00;;;;;;5012736;28;20396;-75
2021/11/28 05:16:33;;;;;;;11.30;6.63;;;3.80;58.60;;;;;;5012379;28;20865;-75
2021/11/28 05:18:59;;;;;;;14.40;7.30;;;3.90;58.20;;;;;;5012059;28;20401;-76
2021/11/28 05:21:25;;;;;;;10.88;7.63;;;3.90;57.80;;;;;;5011774;28;20404;-76
2021/11/28 05:23:50;;;;;;;14.55;7.72;;;4.00;57.80;;;;;;5011367;28;20389;-75
2021/11/28 05:26:17;;;;;;;13.87;7.43;;;3.90;57.20;;;;;;5011847;28;20393;-76
2021/11/28 05:28:42;;;;;;;10.90;6.60;;;3.90;57.20;;;;;;5012095;28;20404;-76
2021/11/28 05:31:11;;;;;;;12.87;6.90;;;3.90;57.40;;;;;;5012004;28;20397;-76
2021/11/28 05:33:37;;;;;;;11.50;7.20;;;3.90;57.40;;;;;;5011780;28;20400;-76
2021/11/28 05:36:03;;;;;;;11.13;6.75;;;3.90;57.10;;;;;;5011939;28;20469;-76
2021/11/28 05:38:28;;;;;;;11.98;6.30;;;3.90;57.30;;;;;;5011863;28;20408;-76
2021/11/28 05:40:54;;;;;;;8.43;6.60;;;4.00;57.90;;;;;;5011855;28;20869;-76
2021/11/28 05:43:19;;;;;;;10.53;7.03;;;4.10;56.70;;;;;;5016298;28;20397;-75
2021/11/28 05:45:45;;;;;;;9.73;6.43;;;4.10;56.70;;;;;;5016507;28;20404;-75
2021/11/28 05:48:11;;;;;;;9.27;6.30;;;4.10;56.80;;;;;;5018384;28;20400;-75
2021/11/28 05:50:36;;;;;;;12.32;7.32;;;4.20;57.20;;;;;;5017024;28;20495;-75
2021/11/28 05:53:02;;;;;;;12.82;6.38;;;4.10;56.40;;;;;;5016711;28;20951;-74
2021/11/28 05:55:28;;;;;;;11.80;6.53;;;4.20;56.70;;;;;;5017700;28;20411;-75
2021/11/28 05:57:54;;;;;;;10.30;6.73;;;4.30;55.70;;;;;;5016008;28;20424;-75
2021/11/28 06:00:21;;;;;;;13.80;7.57;;;4.20;55.20;;;;;;5011697;28;20997;-75
2021/11/28 06:02:47;;;;;;;15.05;8.05;;;4.20;56.20;;;;;;5011542;28;20495;-75
2021/11/28 06:05:13;;;;;;;9.60;7.00;;;4.10;57.00;;;;;;5010040;28;20468;-75
2021/11/28 06:07:41;;;;;;;14.17;7.97;;;4.10;56.90;;;;;;5011494;28;20423;-75
2021/11/28 06:10:08;;;;;;;12.17;7.57;;;4.10;57.20;;;;;;5011507;28;20958;-75
2021/11/28 06:12:33;;;;;;;12.27;7.43;;;4.10;57.40;;;;;;5010369;28;20392;-75
2021/11/28 06:14:59;;;;;;;11.63;6.63;;;4.10;56.50;;;;;;5011333;28;20400;-74
2021/11/28 06:17:24;;;;;;;11.00;6.77;;;4.10;56.80;;;;;;5010681;28;20412;-75
2021/11/28 06:19:50;;;;;;;11.27;6.90;;;4.10;57.20;;;;;;5012075;28;20464;-75
2021/11/28 06:22:16;;;;;;;14.30;7.50;;;4.10;56.90;;;;;;5012045;28;20414;-75
2021/11/28 06:24:41;;;;;;;10.02;7.40;;;4.10;56.90;;;;;;5011205;28;20396;-74
2021/11/28 06:27:08;;;;;;;12.07;7.17;;;4.20;57.00;;;;;;5012237;28;20825;-74
2021/11/28 06:29:35;;;;;;;13.23;7.35;;;4.20;57.10;;;;;;5010789;28;20428;-75
2021/11/28 06:32:01;;;;;;;12.05;7.00;;;4.20;56.60;;;;;;5012598;28;20733;-76
2021/11/28 06:34:26;;;;;;;12.35;6.72;;;4.10;56.90;;;;;;5014288;28;20413;-76
2021/11/28 06:36:54;;;;;;;16.87;8.87;;;4.10;57.20;;;;;;5011617;28;20411;-75
2021/11/28 06:39:20;;;;;;;20.95;7.88;;;4.10;57.50;;;;;;5011783;28;20408;-75
2021/11/28 06:41:45;;;;;;;13.35;7.05;;;4.10;57.50;;;;;;5011749;28;20816;-74
2021/11/28 06:44:12;;;;;;;10.80;7.40;;;4.10;57.80;;;;;;5012743;28;20380;-74
2021/11/28 06:46:37;;;;;;;9.60;6.50;;;4.10;58.10;;;;;;5012081;28;20877;-76
2021/11/28 06:49:03;;;;;;;13.98;7.40;;;4.10;58.60;;;;;;5011502;28;20404;-75
2021/11/28 06:51:28;;;;;;;12.93;7.60;;;4.10;58.50;;;;;;5005048;28;20574;-74
2021/11/28 06:53:54;;;;;;;10.30;6.87;;;4.10;58.80;;;;;;5001886;28;20400;-74
2021/11/28 06:56:19;;;;;;;13.17;6.63;;;4.00;59.50;;;;;;5010545;28;20516;-75
2021/11/28 06:58:48;;;;;;;11.40;7.30;;;4.10;59.80;;;;;;5011422;28;20423;-76
2021/11/28 07:01:14;;;;;;;12.23;7.40;;;4.10;59.90;;;;;;5011036;28;20474;-75
2021/11/28 07:03:39;;;;;;;11.55;6.57;;;4.00;59.60;;;;;;5011281;28;20369;-74
2021/11/28 07:06:05;;;;;;;13.00;7.28;;;4.00;59.80;;;;;;5011970;28;20443;-76
2021/11/28 07:08:31;;;;;;;15.90;8.15;;;4.10;60.20;;;;;;5011840;28;20794;-75
2021/11/28 07:10:58;;;;;;;35.93;18.13;;;4.10;59.80;;;;;;5011963;28;20396;-75
2021/11/28 07:13:25;;;;;;;32.15;16.63;;;4.10;59.50;;;;;;5010523;28;20416;-75
2021/11/28 07:15:51;;;;;;;38.55;20.55;;;4.10;59.70;;;;;;5009723;28;20447;-76
2021/11/28 07:18:16;;;;;;;34.00;16.85;;;4.10;59.60;;;;;;5010572;28;20462;-75
2021/11/28 07:20:42;;;;;;;28.25;14.50;;;4.10;59.50;;;;;;5010778;28;20797;-76
2021/11/28 07:23:08;;;;;;;28.92;14.40;;;4.20;59.40;;;;;;5009571;28;20384;-76
2021/11/28 07:25:33;;;;;;;26.20;15.20;;;4.30;58.80;;;;;;5011376;28;20392;-76
2021/11/28 07:28:01;;;;;;;31.70;16.20;;;4.30;57.70;;;;;;5010864;28;20389;-76
2021/11/28 07:30:27;;;;;;;26.42;14.10;;;4.30;57.30;;;;;;5010769;28;20404;-75
2021/11/28 07:32:53;;;;;;;20.15;11.73;;;4.20;57.80;;;;;;5010627;28;20389;-75
2021/11/28 07:35:19;;;;;;;18.10;11.20;;;4.30;58.20;;;;;;5010186;28;20823;-74
2021/11/28 07:37:45;;;;;;;14.82;8.70;;;4.30;58.60;;;;;;5010654;28;20411;-75
2021/11/28 07:40:12;;;;;;;12.85;7.32;;;4.40;58.40;;;;;;5010955;28;20397;-75
2021/11/28 07:42:39;;;;;;;14.32;8.13;;;4.40;57.60;;;;;;5009244;28;20479;-75
2021/11/28 07:45:06;;;;;;;10.90;7.40;;;4.50;56.60;;;;;;5010711;28;20381;-76
2021/11/28 07:47:32;;;;;;;14.60;7.30;;;4.50;55.60;;;;;;5011420;28;20392;-76
2021/11/28 07:49:58;;;;;;;10.40;7.23;;;4.50;55.10;;;;;;5003229;28;20767;-75
2021/11/28 07:52:23;;;;;;;14.57;7.70;;;4.50;55.00;;;;;;4994452;28;20403;-76
2021/11/28 07:54:49;;;;;;;12.43;7.82;;;4.50;55.00;;;;;;5006232;28;20464;-75
2021/11/28 07:57:15;;;;;;;11.20;7.50;;;4.50;55.10;;;;;;5029300;28;20397;-73
2021/11/28 07:59:40;;;;;;;10.57;8.23;;;4.50;55.10;;;;;;5025505;28;20885;-75
2021/11/28 08:02:06;;;;;;;13.97;7.20;;;4.60;55.40;;;;;;5014528;28;20381;-75
2021/11/28 08:04:32;;;;;;;14.00;8.80;;;4.50;55.20;;;;;;5013901;28;20445;-75
2021/11/28 08:06:59;;;;;;;16.05;8.50;;;4.50;55.10;;;;;;5011901;28;20796;-75
2021/11/28 08:09:25;;;;;;;13.60;8.35;;;4.50;55.40;;;;;;5012522;28;20400;-75
2021/11/28 08:11:51;;;;;;;15.07;8.32;;;4.60;55.40;;;;;;5011812;28;20396;-75
2021/11/28 08:14:17;;;;;;;13.85;8.10;;;4.60;55.40;;;;;;5013772;28;20393;-72
2021/11/28 08:16:42;;;;;;;10.98;7.88;;;4.70;54.80;;;;;;5013811;28;20387;-73
2021/11/28 08:19:08;;;;;;;13.32;8.00;;;4.70;54.50;;;;;;5013260;28;20405;-74
2021/11/28 08:21:34;;;;;;;11.80;7.70;;;4.70;54.10;;;;;;5005760;28;20458;-76
2021/11/28 08:24:02;;;;;;;13.80;8.10;;;4.90;53.70;;;;;;5010175;28;20492;-75
2021/11/28 08:26:29;;;;;;;12.15;8.10;;;5.00;52.50;;;;;;5009099;28;20461;-75
2021/11/28 08:28:56;;;;;;;14.77;8.20;;;5.00;51.40;;;;;;5013410;28;20809;-76
2021/11/28 08:31:23;;;;;;;9.43;7.00;;;5.10;51.00;;;;;;5013322;28;20845;-76
2021/11/28 08:33:48;;;;;;;10.90;7.80;;;5.20;50.40;;;;;;5009652;28;20401;-79
2021/11/28 08:36:18;;;;;;;15.37;8.07;;;5.30;49.00;;;;;;5014981;28;20397;-78
2021/11/28 08:38:44;;;;;;;13.20;8.20;;;5.30;48.50;;;;;;5004995;28;20472;-76
2021/11/28 08:41:12;;;;;;;16.53;7.87;;;5.30;48.00;;;;;;5014960;28;20424;-77
2021/11/28 08:43:38;;;;;;;13.27;8.20;;;5.40;47.40;;;;;;5012804;28;20430;-74
2021/11/28 08:46:04;;;;;;;14.43;7.93;;;5.40;47.40;;;;;;5017654;28;20437;-78
2021/11/28 08:48:30;;;;;;;12.88;7.55;;;5.50;46.80;;;;;;5020432;28;20413;-76
2021/11/28 08:50:56;;;;;;;10.18;7.70;;;5.70;46.40;;;;;;5021289;28;20456;-76
2021/11/28 08:53:22;;;;;;;11.95;7.22;;;5.80;45.30;;;;;;5014636;28;20416;-75
2021/11/28 08:55:48;;;;;;;15.75;7.72;;;6.00;44.10;;;;;;5013031;28;20400;-76
2021/11/28 08:58:13;;;;;;;14.38;7.82;;;6.00;43.70;;;;;;5013595;28;20523;-76
2021/11/28 09:00:39;;;;;;;13.60;7.93;;;6.10;42.30;;;;;;5009914;28;20786;-75
2021/11/28 09:03:04;;;;;;;13.25;8.85;;;6.20;42.00;;;;;;5016205;28;20458;-75
2021/11/28 09:05:30;;;;;;;13.00;8.70;;;6.20;40.70;;;;;;5013091;28;20419;-76
2021/11/28 09:07:57;;;;;;;14.57;8.47;;;6.40;39.50;;;;;;5006697;28;20410;-76
2021/11/28 09:10:23;;;;;;;11.65;8.20;;;6.60;38.70;;;;;;5008644;28;20412;-75
2021/11/28 09:12:49;;;;;;;14.85;8.40;;;6.80;37.50;;;;;;5002814;28;20739;-75
2021/11/28 09:15:16;;;;;;;13.07;8.50;;;6.70;38.00;;;;;;5012015;28;20408;-76
2021/11/28 09:17:49;;;;;;;13.20;8.57;;;6.60;39.10;;;;;;5011563;28;20482;-76
2021/11/28 09:20:18;;;;;;;14.70;8.73;;;6.50;40.10;;;;;;5013120;28;20839;-75
2021/11/28 09:25:12;;;;;;;17.52;9.35;;;6.20;41.80;;;;;;5010725;28;20517;-76
2021/11/28 09:27:41;;;;;;;15.35;9.52;;;6.10;41.10;;;;;;5012376;28;20949;-75
2021/11/28 09:30:06;;;;;;;18.27;10.27;;;5.90;41.20;;;;;;5013070;28;20400;-74
2021/11/28 09:32:32;;;;;;;16.02;9.65;;;5.90;44.80;;;;;;5014191;28;20406;-76
2021/11/28 09:34:58;;;;;;;17.20;9.70;;;5.80;43.20;;;;;;5008086;28;20412;-75
2021/11/28 09:37:23;;;;;;;14.27;9.77;;;5.80;43.10;;;;;;5005626;28;20437;-74
2021/11/28 09:39:49;;;;;;;16.90;9.77;;;5.60;43.00;;;;;;5009996;28;20393;-76
2021/11/28 09:42:25;;;;;;;17.53;10.00;;;5.60;43.50;;;;;;5011909;28;20396;-75
2021/11/28 09:44:50;;;;;;;17.10;10.70;;;5.60;44.40;;;;;;5009134;28;20567;-75
2021/11/28 09:47:17;;;;;;;18.20;9.82;;;5.60;44.50;;;;;;5019112;28;20473;-75
2021/11/28 09:49:44;;;;;;;22.00;10.63;;;5.60;44.30;;;;;;5012997;28;20401;-75
2021/11/28 09:52:16;;;;;;;17.83;10.90;;;5.60;44.70;;;;;;5025689;28;20760;-77
2021/11/28 09:54:44;;;;;;;22.20;11.18;;;5.60;45.30;;;;;;5011917;28;20393;-73
2021/11/28 09:57:13;;;;;;;18.67;11.02;;;5.70;44.80;;;;;;5012327;28;20428;-73
2021/11/28 09:59:39;;;;;;;19.85;11.90;;;5.80;43.00;;;;;;5012695;28;20484;-74
2021/11/28 10:02:06;;;;;;;19.98;12.10;;;5.90;43.30;;;;;;5011559;28;20397;-75
2021/11/28 10:04:32;;;;;;;16.87;11.73;;;6.00;44.20;;;;;;5007777;28;20429;-75
2021/11/28 10:06:59;;;;;;;20.87;11.57;;;6.00;42.60;;;;;;5008513;28;20401;-74
2021/11/28 10:09:24;;;;;;;20.45;10.90;;;6.00;43.00;;;;;;5003155;28;20507;-74
2021/11/28 10:12:11;;;;;;;17.20;11.30;;;5.90;42.50;;;;;;5009252;28;20418;-72
2021/11/28 10:14:36;;;;;;;18.38;11.38;;;5.70;43.20;;;;;;5007578;28;20411;-74
2021/11/28 10:17:02;;;;;;;20.03;12.47;;;5.80;43.30;;;;;;5006007;28;20895;-74
2021/11/28 10:19:32;;;;;;;16.95;11.60;;;5.90;44.50;;;;;;4992109;28;20430;-73
2021/11/28 10:21:58;;;;;;;20.60;12.45;;;6.00;43.50;;;;;;5006917;28;20397;-75
2021/11/28 10:24:24;;;;;;;21.80;12.85;;;6.10;42.40;;;;;;5011779;28;20841;-73
2021/11/28 10:27:00;;;;;;;19.45;12.07;;;6.20;41.20;;;;;;5012347;28;20396;-72
2021/11/28 10:29:31;;;;;;;18.67;12.40;;;6.30;41.20;;;;;;5012094;28;20388;-76
2021/11/28 10:31:59;;;;;;;22.65;13.13;;;6.40;40.10;;;;;;5014599;28;20441;-75
2021/11/28 10:34:47;;;;;;;21.63;13.02;;;6.40;40.70;;;;;;5012887;28;20484;-76
2021/11/28 10:37:19;;;;;;;24.88;14.07;;;6.50;39.70;;;;;;5008653;28;20396;-77
2021/11/28 10:39:55;;;;;;;27.48;15.05;;;6.50;40.30;;;;;;5007508;28;20410;-75
2021/11/28 10:42:23;;;;;;;23.88;14.48;;;6.60;39.70;;;;;;5008057;28;20815;-76
2021/11/28 10:45:07;;;;;;;32.42;15.43;;;6.50;39.80;;;;;;5012656;28;20397;-78
2021/11/28 10:47:36;;;;;;;26.63;15.00;;;6.30;41.20;;;;;;5018923;28;20484;-76
2021/11/28 10:50:10;;;;;;;26.90;15.50;;;6.10;42.80;;;;;;5018017;28;20431;-77
2021/11/28 10:52:36;;;;;;;28.35;16.60;;;6.10;43.60;;;;;;5019307;28;20428;-78
2021/11/28 10:55:14;;;;;;;29.30;15.25;;;6.10;43.40;;;;;;5014535;28;20754;-76
2021/11/28 10:57:40;;;;;;;33.70;18.17;;;6.00;42.90;;;;;;5009103;28;20421;-77
2021/11/28 11:00:08;;;;;;;43.85;21.40;;;5.80;43.80;;;;;;5008419;28;20735;-76
2021/11/28 11:02:39;;;;;;;44.97;22.92;;;5.80;44.90;;;;;;5010998;28;20385;-76
2021/11/28 11:05:13;;;;;;;45.97;22.73;;;5.80;44.90;;;;;;5022077;28;20479;-74
2021/11/28 11:07:43;;;;;;;41.85;23.15;;;5.80;45.10;;;;;;5010704;28;20861;-74
2021/11/28 11:10:27;;;;;;;42.50;22.98;;;5.80;45.40;;;;;;5001806;28;20415;-74
2021/11/28 11:12:53;;;;;;;39.75;21.27;;;6.00;44.70;;;;;;5005366;28;20889;-74
2021/11/28 11:15:45;;;;;;;55.65;26.10;;;6.00;44.40;;;;;;5006419;28;20474;-74
2021/11/28 11:18:16;;;;;;;49.17;23.48;;;6.00;43.50;;;;;;4997241;28;20505;-76
2021/11/28 11:21:01;;;;;;;47.13;23.08;;;6.10;43.50;;;;;;5000329;28;20397;-75
2021/11/28 11:23:40;;;;;;;45.47;22.33;;;6.00;43.10;;;;;;5012754;28;20426;-74
2021/11/28 11:26:20;;;;;;;43.25;22.90;;;6.00;43.70;;;;;;5023987;28;20397;-74
2021/11/28 11:28:58;;;;;;;39.27;21.50;;;6.00;44.20;;;;;;5012597;28;20427;-74
2021/11/28 11:31:25;;;;;;;32.10;17.90;;;6.00;43.60;;;;;;5005368;28;20488;-73
2021/11/28 11:33:50;;;;;;;38.53;18.60;;;6.00;43.40;;;;;;5012548;28;20392;-72
2021/11/28 11:36:16;;;;;;;32.10;19.48;;;6.10;43.90;;;;;;5016378;28;20408;-75
2021/11/28 11:38:42;;;;;;;39.92;21.40;;;6.10;44.20;;;;;;5016077;28;20440;-75
2021/11/28 11:41:07;;;;;;;40.63;21.95;;;6.30;44.70;;;;;;5014682;28;20419;-75
2021/11/28 11:43:37;;;;;;;37.17;21.17;;;6.60;43.00;;;;;;5014446;28;20397;-74
2021/11/28 11:46:08;;;;;;;37.80;20.50;;;6.90;42.20;;;;;;5012404;28;20443;-74
2021/11/28 11:48:34;;;;;;;39.90;22.87;;;7.10;40.00;;;;;;5015231;28;20400;-74
2021/11/28 11:51:02;;;;;;;33.10;19.63;;;7.40;38.20;;;;;;5013988;28;20896;-76
2021/11/28 11:53:27;;;;;;;43.05;20.20;;;7.50;38.10;;;;;;5016417;28;20426;-76
2021/11/28 11:55:53;;;;;;;35.42;17.42;;;7.50;37.40;;;;;;5014896;28;20494;-76
2021/11/28 11:58:36;;;;;;;26.13;14.55;;;7.40;36.50;;;;;;5015075;28;20417;-76
2021/11/28 12:01:15;;;;;;;33.55;18.17;;;7.00;36.60;;;;;;5014311;28;20420;-74
2021/11/28 12:03:54;;;;;;;26.42;16.05;;;6.90;38.50;;;;;;5015412;28;20400;-75
2021/11/28 12:06:44;;;;;;;28.88;16.67;;;6.80;38.30;;;;;;5018183;28;20397;-75
2021/11/28 12:09:24;;;;;;;27.33;14.25;;;6.90;37.80;;;;;;5018167;28;20400;-74
2021/11/28 12:12:02;;;;;;;25.55;14.55;;;7.00;36.40;;;;;;5017057;28;20401;-75
2021/11/28 12:14:28;;;;;;;29.08;14.40;;;7.00;36.60;;;;;;5020098;28;20420;-73
2021/11/28 12:16:53;;;;;;;30.02;15.73;;;7.00;36.20;;;;;;5017256;28;20428;-74
2021/11/28 12:19:42;;;;;;;28.63;14.18;;;7.10;36.70;;;;;;5012706;28;21011;-76
2021/11/28 12:22:44;;;;;;;33.28;16.30;;;7.00;35.80;;;;;;5023205;28;20391;-74
2021/11/28 12:25:37;;;;;;;32.07;14.57;;;6.90;37.00;;;;;;5030239;28;20389;-72
2021/11/28 12:28:25;;;;;;;37.72;17.42;;;6.70;38.60;;;;;;5015668;28;20484;-72
2021/11/28 12:30:53;;;;;;;35.40;18.75;;;6.60;39.10;;;;;;5012498;28;20391;-74
2021/11/28 12:33:19;;;;;;;34.65;17.58;;;6.50;39.60;;;;;;5012112;28;20431;-77
2021/11/28 12:35:45;;;;;;;41.30;21.17;;;6.40;39.80;;;;;;5009709;28;20875;-76
2021/11/28 12:38:11;;;;;;;33.95;16.88;;;6.50;40.10;;;;;;5010147;28;20485;-76
2021/11/28 12:40:44;;;;;;;39.53;19.47;;;6.40;39.60;;;;;;5012641;28;20408;-75
2021/11/28 12:43:22;;;;;;;39.90;21.10;;;6.30;40.30;;;;;;5011715;28;20397;-74
2021/11/28 12:45:48;;;;;;;32.97;17.20;;;6.50;40.60;;;;;;5016380;28;20403;-74
2021/11/28 12:48:21;;;;;;;31.67;16.13;;;6.50;39.40;;;;;;5020743;28;20750;-73
2021/11/28 12:50:58;;;;;;;30.33;15.43;;;6.40;39.30;;;;;;5016803;28;20527;-75